createdAt,value
2022-11-03T00:02:11.223Z,13.80
2022-11-03T00:05:33.001Z,14.18
2022-11-03T00:08:35.462Z,11.98
2022-11-03T00:11:40.189Z,14.27
2022-11-03T00:14:42.699Z,13.27
2022-11-03T00:17:47.006Z,14.45
2022-11-03T00:20:57.178Z,13.95
2022-11-03T00:24:02.689Z,14.93
2022-11-03T00:27:05.123Z,16.77
2022-11-03T00:30:09.000Z,17.58
2022-11-03T00:36:17.538Z,15.67
2022-11-03T00:39:20.148Z,14.43
2022-11-03T00:45:25.431Z,14.65
2022-11-03T00:48:31.357Z,14.15
2022-11-03T00:51:37.136Z,14.63
2022-11-03T00:54:44.816Z,15.73
2022-11-03T00:57:47.903Z,14.25
2022-11-03T01:00:51.227Z,17.10
2022-11-03T01:04:14.887Z,17.40
2022-11-03T01:07:21.279Z,16.65
2022-11-03T01:10:23.765Z,13.20
2022-11-03T01:13:26.904Z,13.88
2022-11-03T01:16:30.991Z,15.15
2022-11-03T01:19:34.252Z,13.43
2022-11-03T01:22:36.783Z,15.13
2022-11-03T01:25:39.769Z,12.98
2022-11-03T01:28:44.930Z,10.83
2022-11-03T01:31:48.968Z,10.57
2022-11-03T01:34:51.455Z,13.00
2022-11-03T01:37:56.570Z,10.68
2022-11-03T01:40:59.766Z,11.00
2022-11-03T01:44:09.028Z,9.32
2022-11-03T01:47:26.985Z,11.05
2022-11-03T01:50:30.273Z,8.57
2022-11-03T01:53:34.234Z,7.78
2022-11-03T01:56:41.541Z,7.95
2022-11-03T01:59:46.513Z,11.12
2022-11-03T02:02:53.850Z,9.00
2022-11-03T02:05:56.816Z,10.68
2022-11-03T02:09:04.921Z,9.60
2022-11-03T02:12:09.031Z,9.55
2022-11-03T02:15:14.895Z,9.65
2022-11-03T02:18:22.130Z,8.57
2022-11-03T02:21:48.872Z,9.07
2022-11-03T02:24:54.225Z,11.23
2022-11-03T02:27:58.190Z,8.63
2022-11-03T02:31:15.114Z,10.52
2022-11-03T02:34:36.161Z,8.65
2022-11-03T02:37:46.383Z,11.07
2022-11-03T02:40:54.009Z,9.20
2022-11-03T02:43:58.325Z,10.90
2022-11-03T02:47:05.943Z,8.55
2022-11-03T02:50:10.566Z,9.45
2022-11-03T02:53:14.299Z,10.35
2022-11-03T02:56:23.310Z,10.65
2022-11-03T03:00:05.007Z,8.90
2022-11-03T03:03:14.795Z,7.55
2022-11-03T03:06:55.892Z,8.63
2022-11-03T03:10:06.475Z,7.70
2022-11-03T03:13:12.889Z,8.93
2022-11-03T03:16:21.127Z,8.68
2022-11-03T03:19:47.914Z,8.38
2022-11-03T03:22:59.228Z,9.60
2022-11-03T03:26:04.217Z,15.88
2022-11-03T03:29:14.218Z,11.40
2022-11-03T03:32:21.961Z,14.18
2022-11-03T03:35:30.745Z,13.50
2022-11-03T03:38:41.574Z,12.27
2022-11-03T03:41:47.440Z,27.30
2022-11-03T03:44:52.533Z,20.75
2022-11-03T03:47:57.686Z,15.45
2022-11-03T03:51:02.335Z,10.95
2022-11-03T03:54:05.259Z,11.20
2022-11-03T03:57:15.815Z,13.18
2022-11-03T04:00:19.443Z,11.70
2022-11-03T04:03:24.940Z,9.40
2022-11-03T04:06:27.491Z,11.55
2022-11-03T04:09:30.696Z,11.95
2022-11-03T04:12:52.082Z,11.43
2022-11-03T04:16:13.850Z,8.82
2022-11-03T04:19:35.410Z,9.70
2022-11-03T04:22:38.453Z,14.85
2022-11-03T04:25:42.872Z,13.63
2022-11-03T04:28:46.162Z,13.73
2022-11-03T04:31:48.775Z,11.20
2022-11-03T04:34:52.712Z,10.77
2022-11-03T04:41:03.580Z,18.65
2022-11-03T04:44:14.592Z,15.20
2022-11-03T04:47:18.457Z,15.15
2022-11-03T04:53:31.431Z,12.82
2022-11-03T04:56:34.011Z,11.93
2022-11-03T04:59:37.077Z,11.50
2022-11-03T05:02:39.549Z,11.60
2022-11-03T05:05:42.786Z,11.60
2022-11-03T05:08:55.368Z,12.65
2022-11-03T05:11:59.289Z,11.55
2022-11-03T05:18:25.446Z,11.20
2022-11-03T05:21:28.520Z,12.15
2022-11-03T05:24:33.062Z,10.35
2022-11-03T05:27:35.710Z,11.60
2022-11-03T05:30:38.801Z,16.77
2022-11-03T05:33:41.550Z,12.37
2022-11-03T05:39:48.952Z,14.93
2022-11-03T05:42:58.934Z,16.87
2022-11-03T05:46:03.245Z,16.70
2022-11-03T05:49:07.251Z,10.48
2022-11-03T05:55:40.209Z,13.02
2022-11-03T05:58:44.337Z,13.32
2022-11-03T06:01:47.518Z,18.08
2022-11-03T06:04:50.566Z,14.38
2022-11-03T06:07:55.665Z,11.93
2022-11-03T06:11:00.160Z,13.93
2022-11-03T06:14:21.326Z,12.57
2022-11-03T06:17:27.786Z,13.10
2022-11-03T06:20:30.861Z,14.15
2022-11-03T06:23:35.713Z,13.10
2022-11-03T06:26:38.473Z,13.38
2022-11-03T06:29:41.357Z,14.98
2022-11-03T06:32:44.167Z,11.30
2022-11-03T06:35:49.332Z,13.77
2022-11-03T06:39:03.102Z,12.98
2022-11-03T06:42:14.158Z,13.15
2022-11-03T06:45:27.183Z,12.77
2022-11-03T06:48:35.672Z,9.75
2022-11-03T06:51:38.632Z,11.93
2022-11-03T06:54:49.470Z,11.63
2022-11-03T06:58:22.510Z,18.58
2022-11-03T07:01:32.638Z,12.82
2022-11-03T07:04:35.526Z,14.68
2022-11-03T07:07:40.174Z,15.50
2022-11-03T07:10:44.423Z,19.02
2022-11-03T07:13:50.554Z,17.05
2022-11-03T07:16:56.364Z,16.23
2022-11-03T07:19:59.299Z,15.27
2022-11-03T07:23:52.490Z,16.05
2022-11-03T07:27:29.703Z,18.15
2022-11-03T07:30:36.743Z,17.12
2022-11-03T07:33:39.891Z,24.30
2022-11-03T07:39:50.557Z,22.40
2022-11-03T07:42:58.761Z,21.45
2022-11-03T07:46:03.772Z,21.42
2022-11-03T07:49:18.652Z,18.05
2022-11-03T07:52:27.493Z,22.73
2022-11-03T07:55:35.475Z,27.45
2022-11-03T07:58:41.747Z,23.70
2022-11-03T08:01:49.494Z,29.85
2022-11-03T08:04:54.815Z,24.98
2022-11-03T08:08:05.640Z,32.38
2022-11-03T08:11:08.850Z,25.58
2022-11-03T08:14:12.380Z,29.52
2022-11-03T08:17:16.961Z,27.33
2022-11-03T08:20:20.818Z,30.20
2022-11-03T08:23:26.016Z,31.15
2022-11-03T08:26:29.134Z,31.08
2022-11-03T08:29:32.297Z,31.25
2022-11-03T08:32:35.234Z,31.15
2022-11-03T08:36:21.451Z,30.30
2022-11-03T08:40:08.928Z,33.67
2022-11-03T08:44:04.300Z,31.55
2022-11-03T08:47:56.615Z,35.15
2022-11-03T08:51:33.469Z,36.03
2022-11-03T08:54:37.567Z,31.77
2022-11-03T08:57:40.656Z,31.45
2022-11-03T09:00:43.196Z,36.58
2022-11-03T09:03:46.675Z,33.67
2022-11-03T09:06:49.162Z,36.85
2022-11-03T09:13:17.510Z,36.63
2022-11-03T09:16:20.884Z,36.72
2022-11-03T09:19:28.163Z,33.75
2022-11-03T09:22:34.031Z,34.55
2022-11-03T09:25:44.455Z,32.15
2022-11-03T09:28:52.597Z,33.95
2022-11-03T09:31:56.899Z,33.78
2022-11-03T09:35:00.700Z,35.72
2022-11-03T09:41:13.908Z,32.47
2022-11-03T09:44:28.549Z,37.95
2022-11-03T09:50:44.477Z,39.47
2022-11-03T09:53:48.504Z,35.40
2022-11-03T09:56:51.313Z,36.45
2022-11-03T09:59:55.731Z,40.15
2022-11-03T10:02:58.432Z,41.47
2022-11-03T10:09:20.839Z,39.97
2022-11-03T10:12:26.250Z,35.58
2022-11-03T10:15:29.518Z,42.75
2022-11-03T10:18:34.729Z,36.33
2022-11-03T10:21:39.451Z,33.85
2022-11-03T10:24:43.514Z,38.97
2022-11-03T10:27:46.115Z,37.70
2022-11-03T10:31:12.310Z,37.28
2022-11-03T10:34:24.311Z,41.50
2022-11-03T10:37:28.368Z,38.33
2022-11-03T10:40:52.026Z,36.22
2022-11-03T10:44:15.574Z,39.50
2022-11-03T10:47:34.784Z,36.40
2022-11-03T10:50:42.110Z,37.95
2022-11-03T10:53:44.959Z,40.88
2022-11-03T10:56:49.540Z,39.47
2022-11-03T10:59:54.171Z,37.65
2022-11-03T11:03:01.763Z,38.42
2022-11-03T11:06:04.524Z,38.45
2022-11-03T11:09:12.044Z,37.40
2022-11-03T11:12:18.312Z,34.80
2022-11-03T11:15:36.860Z,38.78
2022-11-03T11:18:39.346Z,38.40
2022-11-03T11:21:42.457Z,40.45
2022-11-03T11:25:05.361Z,40.38
2022-11-03T11:28:18.332Z,41.37
2022-11-03T11:31:26.656Z,39.63
2022-11-03T11:34:35.417Z,38.90
2022-11-03T11:37:38.495Z,38.75
2022-11-03T11:40:51.088Z,46.08
2022-11-03T11:43:53.631Z,39.30
2022-11-03T11:46:56.732Z,43.05
2022-11-03T11:50:11.032Z,42.50
2022-11-03T11:53:20.799Z,45.75
2022-11-03T11:56:23.949Z,43.90
2022-11-03T11:59:27.656Z,45.12
2022-11-03T12:02:31.215Z,41.45
2022-11-03T12:05:35.962Z,41.90
2022-11-03T12:08:38.722Z,43.80
2022-11-03T12:11:53.909Z,49.03
2022-11-03T12:14:58.091Z,41.88
2022-11-03T12:21:53.939Z,42.95
2022-11-03T12:24:58.761Z,48.63
2022-11-03T12:28:01.237Z,46.65
2022-11-03T12:31:04.457Z,46.92
2022-11-03T12:34:06.929Z,50.47
2022-11-03T12:37:10.181Z,51.60
2022-11-03T12:40:14.147Z,57.03
2022-11-03T12:43:17.529Z,46.92
2022-11-03T12:46:21.466Z,51.58
2022-11-03T12:49:24.926Z,47.92
2022-11-03T12:52:27.362Z,43.33
2022-11-03T12:55:30.649Z,49.63
2022-11-03T12:58:33.185Z,49.63
2022-11-03T13:01:36.473Z,44.25
2022-11-03T13:04:39.046Z,50.83
2022-11-03T13:07:43.527Z,48.10
2022-11-03T13:10:46.173Z,46.90
2022-11-03T13:13:53.343Z,51.13
2022-11-03T13:16:55.887Z,55.75
2022-11-03T13:23:02.141Z,49.80
2022-11-03T13:26:05.562Z,45.58
2022-11-03T13:29:08.164Z,47.42
2022-11-03T13:32:11.202Z,48.87
2022-11-03T13:35:14.498Z,39.55
2022-11-03T13:38:17.583Z,41.53
2022-11-03T13:41:20.040Z,36.28
2022-11-03T13:44:25.478Z,35.80
2022-11-03T13:47:42.011Z,37.65
2022-11-03T13:50:52.785Z,36.88
2022-11-03T14:00:41.264Z,40.37
2022-11-03T14:07:07.269Z,34.22
2022-11-03T14:10:11.086Z,38.08
2022-11-03T14:16:16.409Z,34.88
2022-11-03T14:19:18.905Z,33.88
2022-11-03T14:22:22.427Z,33.28
2022-11-03T14:25:24.898Z,33.47
2022-11-03T14:28:27.952Z,30.25
2022-11-03T14:31:36.069Z,31.12
2022-11-03T14:34:39.424Z,36.53
2022-11-03T14:37:41.963Z,31.37
2022-11-03T14:44:06.296Z,34.88
2022-11-03T14:47:12.540Z,31.80
2022-11-03T14:50:15.123Z,32.25
2022-11-03T14:56:20.344Z,34.88
2022-11-03T14:59:23.691Z,30.58
2022-11-03T15:02:26.176Z,34.78
2022-11-03T15:05:44.355Z,36.38
2022-11-03T15:08:49.744Z,41.75
2022-11-03T15:11:55.132Z,40.80
2022-11-03T15:14:57.815Z,42.35
2022-11-03T15:21:05.950Z,31.98
2022-11-03T15:27:31.669Z,29.65
2022-11-03T15:30:35.452Z,32.58
2022-11-03T15:36:43.394Z,27.70
2022-11-03T15:39:45.863Z,30.27
2022-11-03T15:42:48.997Z,33.15
2022-11-03T15:45:51.412Z,30.35
2022-11-03T15:48:56.562Z,30.92
2022-11-03T15:52:07.932Z,29.17
2022-11-03T15:55:11.081Z,28.55
2022-11-03T15:58:13.506Z,31.05
2022-11-03T16:01:16.683Z,30.30
2022-11-03T16:04:19.575Z,27.25
2022-11-03T16:07:22.390Z,33.30
2022-11-03T16:10:25.123Z,35.30
2022-11-03T16:13:27.883Z,37.80
2022-11-03T16:16:30.686Z,38.60
2022-11-03T16:19:33.471Z,37.78
2022-11-03T16:22:37.058Z,38.65
2022-11-03T16:25:39.863Z,37.95
2022-11-03T16:28:42.698Z,38.30
2022-11-03T16:31:48.346Z,42.25
2022-11-03T16:34:51.184Z,43.58
2022-11-03T16:37:53.957Z,42.70
2022-11-03T16:40:57.008Z,42.28
2022-11-03T16:43:59.808Z,44.28
2022-11-03T16:47:02.822Z,52.78
2022-11-03T16:50:06.098Z,45.45
2022-11-03T16:53:09.344Z,50.35
2022-11-03T16:56:12.588Z,43.45
2022-11-03T16:59:15.414Z,50.95
2022-11-03T17:02:18.250Z,45.03
2022-11-03T17:05:22.616Z,44.15
2022-11-03T17:08:51.285Z,51.50
2022-11-03T17:11:48.347Z,53.80
2022-11-03T17:14:54.076Z,52.25
2022-11-03T17:18:00.042Z,56.03
2022-11-03T17:21:02.822Z,52.70
2022-11-03T17:24:06.736Z,54.97
2022-11-03T17:27:14.929Z,60.03
2022-11-03T17:30:21.359Z,51.63
2022-11-03T17:33:24.319Z,53.72
2022-11-03T17:36:27.141Z,51.78
2022-11-03T17:39:34.526Z,54.78
2022-11-03T17:42:37.958Z,57.80
2022-11-03T17:45:40.772Z,55.25
2022-11-03T17:48:47.004Z,56.65
2022-11-03T17:51:50.333Z,57.90
2022-11-03T17:54:55.154Z,60.22
2022-11-03T17:58:01.283Z,57.80
2022-11-03T18:01:05.958Z,63.15
2022-11-03T18:07:29.939Z,54.45
2022-11-03T18:10:36.120Z,60.55
2022-11-03T18:13:38.950Z,59.00
2022-11-03T18:19:44.295Z,53.35
2022-11-03T18:22:47.466Z,55.50
2022-11-03T18:25:51.115Z,49.55
2022-11-03T18:28:54.974Z,51.42
2022-11-03T18:35:01.072Z,55.88
2022-11-03T18:38:06.849Z,54.22
2022-11-03T18:41:40.245Z,56.33
2022-11-03T18:44:43.152Z,55.47
2022-11-03T18:47:46.382Z,54.00
2022-11-03T18:50:51.119Z,57.25
2022-11-03T18:53:54.698Z,57.13
2022-11-03T18:56:57.708Z,55.00
2022-11-03T19:00:02.157Z,53.60
2022-11-03T19:03:04.574Z,55.67
2022-11-03T19:06:10.180Z,57.70
2022-11-03T19:09:16.133Z,61.33
2022-11-03T19:12:19.497Z,51.70
2022-11-03T19:15:24.781Z,52.45
2022-11-03T19:18:30.952Z,57.00
2022-11-03T19:21:33.488Z,56.13
2022-11-03T19:24:36.891Z,52.15
2022-11-03T19:27:42.719Z,56.47
2022-11-03T19:30:45.885Z,55.47
2022-11-03T19:33:54.127Z,54.30
2022-11-03T19:36:57.616Z,63.00
2022-11-03T19:40:00.531Z,58.65
2022-11-03T19:43:05.719Z,58.42
2022-11-03T19:46:17.694Z,58.97
2022-11-03T19:49:20.722Z,59.03
2022-11-03T19:52:27.705Z,59.60
2022-11-03T19:55:34.807Z,56.47
2022-11-03T19:58:37.333Z,69.60
2022-11-03T20:01:40.488Z,56.22
2022-11-03T20:04:46.751Z,57.17
2022-11-03T20:07:49.525Z,54.90
2022-11-03T20:10:52.866Z,58.35
2022-11-03T20:13:55.600Z,55.97
2022-11-03T20:17:10.471Z,58.28
2022-11-03T20:20:15.825Z,58.53
2022-11-03T20:23:25.792Z,55.83
2022-11-03T20:26:28.655Z,57.20
2022-11-03T20:29:34.834Z,55.97
2022-11-03T20:32:37.779Z,54.72
2022-11-03T20:35:40.667Z,53.45
2022-11-03T20:38:55.683Z,51.25
2022-11-03T20:41:58.537Z,49.03
2022-11-03T20:45:01.332Z,49.90
2022-11-03T20:48:10.397Z,52.78
2022-11-03T20:51:18.420Z,48.83
2022-11-03T20:54:21.757Z,47.97
2022-11-03T20:57:24.551Z,52.58
2022-11-03T21:00:28.299Z,53.60
2022-11-03T21:03:37.617Z,47.10
2022-11-03T21:06:53.801Z,49.20
2022-11-03T21:09:56.599Z,46.97
2022-11-03T21:12:59.336Z,49.53
2022-11-03T21:16:24.464Z,44.97
2022-11-03T21:19:49.501Z,42.88
2022-11-03T21:22:53.797Z,43.55
2022-11-03T21:25:57.392Z,41.42
2022-11-03T21:29:00.232Z,42.70
2022-11-03T21:32:03.010Z,46.45
2022-11-03T21:35:06.607Z,47.17
2022-11-03T21:38:10.650Z,43.17
2022-11-03T21:41:32.332Z,45.25
2022-11-03T21:44:36.335Z,45.92
2022-11-03T21:47:39.099Z,43.78
2022-11-03T21:50:42.880Z,44.95
2022-11-03T21:53:46.151Z,37.20
2022-11-03T21:59:51.666Z,39.10
2022-11-03T22:02:55.152Z,42.70
2022-11-03T22:06:03.412Z,38.55
2022-11-03T22:09:05.894Z,37.67
2022-11-03T22:12:10.220Z,41.30
2022-11-03T22:15:31.594Z,42.62
2022-11-03T22:18:34.671Z,41.42
2022-11-03T22:21:57.102Z,39.53
2022-11-03T22:25:18.682Z,37.88
2022-11-03T22:28:21.411Z,34.50
2022-11-03T22:31:42.867Z,36.15
2022-11-03T22:35:04.217Z,38.58
2022-11-03T22:38:12.602Z,42.15
2022-11-03T22:41:38.131Z,37.40
2022-11-03T22:44:59.740Z,35.50
2022-11-03T22:48:04.747Z,39.08
2022-11-03T22:51:16.763Z,36.83
2022-11-03T22:54:19.568Z,36.28
2022-11-03T23:00:26.061Z,36.33
2022-11-03T23:06:40.509Z,34.40
2022-11-03T23:09:43.966Z,32.38
2022-11-03T23:12:46.464Z,39.33
2022-11-03T23:15:49.496Z,35.35
2022-11-03T23:19:11.815Z,34.70
2022-11-03T23:22:14.827Z,38.13
2022-11-03T23:25:17.378Z,37.57
2022-11-03T23:28:20.647Z,33.22
2022-11-03T23:31:23.212Z,34.97
2022-11-03T23:34:26.672Z,33.38
2022-11-03T23:37:29.122Z,36.53
2022-11-03T23:40:33.375Z,34.45
2022-11-03T23:43:36.247Z,32.50
2022-11-03T23:46:58.340Z,32.58
2022-11-03T23:50:00.867Z,31.70
2022-11-03T23:53:04.310Z,32.40
2022-11-03T23:56:25.691Z,33.53
2022-11-03T23:59:30.386Z,35.22
